createdAt,value
2023-01-01T00:01:29.507Z,12.60
2023-01-01T00:06:37.686Z,12.60
2023-01-01T00:12:06.795Z,12.60
2023-01-01T00:17:20.487Z,12.70
2023-01-01T00:22:53.807Z,12.70
2023-01-01T00:28:05.077Z,12.60
2023-01-01T00:33:10.278Z,12.60
2023-01-01T00:38:24.086Z,12.60
2023-01-01T00:43:33.014Z,12.50
2023-01-01T00:48:50.594Z,12.50
2023-01-01T00:54:05.317Z,12.40
2023-01-01T00:59:28.535Z,12.40
2023-01-01T01:04:46.558Z,12.50
2023-01-01T01:10:02.275Z,12.30
2023-01-01T01:20:39.632Z,12.40
2023-01-01T01:25:50.970Z,12.40
2023-01-01T01:31:05.285Z,12.30
2023-01-01T01:36:24.214Z,12.40
2023-01-01T01:41:36.718Z,12.50
2023-01-01T01:46:55.080Z,12.50
2023-01-01T01:52:07.927Z,12.50
2023-01-01T01:57:27.364Z,12.50
2023-01-01T02:02:40.711Z,12.40
2023-01-01T02:07:46.224Z,12.30
2023-01-01T02:12:52.460Z,12.30
2023-01-01T02:18:10.424Z,12.30
2023-01-01T02:23:54.226Z,12.30
2023-01-01T02:29:09.283Z,12.30
2023-01-01T02:34:18.509Z,12.40
2023-01-01T02:39:29.902Z,12.40
2023-01-01T02:44:42.187Z,12.50
2023-01-01T02:50:13.060Z,12.60
2023-01-01T02:55:38.138Z,12.60
2023-01-01T03:00:41.709Z,12.50
2023-01-01T03:06:23.538Z,12.40
2023-01-01T03:11:36.107Z,12.50
2023-01-01T03:16:51.370Z,12.40
2023-01-01T03:22:04.376Z,12.40
2023-01-01T03:27:18.096Z,12.50
2023-01-01T03:32:47.921Z,12.50
2023-01-01T03:37:57.285Z,12.50
2023-01-01T03:43:28.107Z,12.60
2023-01-01T03:49:00.314Z,12.50
2023-01-01T03:54:36.391Z,12.50
2023-01-01T03:59:57.143Z,12.50
2023-01-01T04:05:01.922Z,12.60
2023-01-01T04:10:17.421Z,12.50
2023-01-01T04:15:24.343Z,12.50
2023-01-01T04:20:30.537Z,12.60
2023-01-01T04:25:33.127Z,12.70
2023-01-01T04:35:38.785Z,12.90
2023-01-01T04:40:40.557Z,12.90
2023-01-01T04:45:42.329Z,13.00
2023-01-01T04:50:44.135Z,13.00
2023-01-01T04:55:46.514Z,13.10
2023-01-01T05:00:50.399Z,13.10
2023-01-01T05:06:08.441Z,13.00
2023-01-01T05:11:28.484Z,13.00
2023-01-01T05:16:35.871Z,13.00
2023-01-01T05:21:45.720Z,13.00
2023-01-01T05:26:48.020Z,12.80
2023-01-01T05:31:51.047Z,12.70
2023-01-01T05:36:52.939Z,12.90
2023-01-01T05:41:54.764Z,12.90
2023-01-01T05:46:57.105Z,13.00
2023-01-01T05:51:58.965Z,12.90
2023-01-01T05:57:00.811Z,13.00
2023-01-01T06:02:02.705Z,13.00
2023-01-01T06:07:04.675Z,13.20
2023-01-01T06:12:07.430Z,13.30
2023-01-01T06:17:09.333Z,13.40
2023-01-01T06:22:14.109Z,13.50
2023-01-01T06:27:15.911Z,13.60
2023-01-01T06:32:17.798Z,13.70
2023-01-01T06:37:19.628Z,13.80
2023-01-01T06:42:21.496Z,13.90
2023-01-01T06:47:23.394Z,14.10
2023-01-01T06:52:25.165Z,14.20
2023-01-01T06:57:27.024Z,14.30
2023-01-01T07:02:29.186Z,14.40
2023-01-01T07:07:35.843Z,14.60
2023-01-01T07:12:38.036Z,14.80
2023-01-01T07:17:39.976Z,14.90
2023-01-01T07:22:41.823Z,15.00
2023-01-01T07:27:43.696Z,15.10
2023-01-01T07:32:45.674Z,15.10
2023-01-01T07:37:47.498Z,15.20
2023-01-01T07:42:49.308Z,15.20
2023-01-01T07:47:54.284Z,15.30
2023-01-01T07:52:56.569Z,15.40
2023-01-01T07:57:58.368Z,15.60
2023-01-01T08:03:00.336Z,15.80
2023-01-01T08:08:02.220Z,16.20
2023-01-01T08:13:06.389Z,16.80
2023-01-01T08:18:09.567Z,17.60
2023-01-01T08:23:11.394Z,18.30
2023-01-01T08:28:13.188Z,18.90
2023-01-01T08:33:14.973Z,19.20
2023-01-01T08:38:16.989Z,19.80
2023-01-01T08:43:20.526Z,20.80
2023-01-01T08:48:28.763Z,21.80
2023-01-01T08:53:33.193Z,22.40
2023-01-01T08:58:40.333Z,22.90
2023-01-01T09:03:42.288Z,23.20
2023-01-01T09:08:44.091Z,23.40
2023-01-01T09:13:45.943Z,23.10
2023-01-01T09:18:47.959Z,22.80
2023-01-01T09:23:49.805Z,22.30
2023-01-01T09:28:51.738Z,21.80
2023-01-01T09:33:53.613Z,21.40
2023-01-01T09:38:56.766Z,21.70
2023-01-01T09:43:58.535Z,21.80
2023-01-01T09:49:06.189Z,21.60
2023-01-01T09:54:21.604Z,21.40
2023-01-01T09:59:23.774Z,21.40
2023-01-01T10:04:40.697Z,21.30
2023-01-01T10:09:57.290Z,21.30
2023-01-01T10:15:27.636Z,21.50
2023-01-01T10:20:38.678Z,22.20
2023-01-01T10:25:42.243Z,22.40
2023-01-01T10:30:44.589Z,22.10
2023-01-01T10:36:02.953Z,21.90
2023-01-01T10:41:19.371Z,22.10
2023-01-01T10:46:32.360Z,22.40
2023-01-01T10:51:39.121Z,22.40
2023-01-01T10:56:44.148Z,22.60
2023-01-01T11:01:48.089Z,22.90
2023-01-01T11:06:50.013Z,23.00
2023-01-01T11:12:09.425Z,23.00
2023-01-01T11:17:31.811Z,23.30
2023-01-01T11:22:42.547Z,23.50
2023-01-01T11:27:44.569Z,23.80
2023-01-01T11:32:53.591Z,23.90
2023-01-01T11:37:58.863Z,24.10
2023-01-01T11:43:03.840Z,24.60
2023-01-01T11:48:16.494Z,24.60
2023-01-01T11:53:24.530Z,24.40
2023-01-01T11:59:03.843Z,24.30
2023-01-01T12:04:16.356Z,23.80
2023-01-01T12:09:42.635Z,23.60
2023-01-01T12:15:05.308Z,23.40
2023-01-01T12:20:26.589Z,23.30
2023-01-01T12:25:41.367Z,23.40
2023-01-01T12:31:10.854Z,23.50
2023-01-01T12:36:38.237Z,23.50
2023-01-01T12:41:45.743Z,23.30
2023-01-01T12:46:53.542Z,23.10
2023-01-01T12:52:02.865Z,23.20
2023-01-01T12:57:32.351Z,23.50
2023-01-01T13:02:37.228Z,23.60
2023-01-01T13:07:41.274Z,23.90
2023-01-01T13:12:43.460Z,23.90
2023-01-01T13:17:53.186Z,23.70
2023-01-01T13:22:55.036Z,24.00
2023-01-01T13:27:57.008Z,24.20
2023-01-01T13:33:15.788Z,24.10
2023-01-01T13:38:52.889Z,24.00
2023-01-01T13:44:22.909Z,23.80
2023-01-01T13:49:41.043Z,23.60
2023-01-01T13:55:17.970Z,23.30
2023-01-01T14:00:32.579Z,23.00
2023-01-01T14:05:50.099Z,23.00
2023-01-01T14:10:51.943Z,22.90
2023-01-01T14:16:03.354Z,22.80
2023-01-01T14:21:20.292Z,22.70
2023-01-01T14:26:24.719Z,22.60
2023-01-01T14:31:34.446Z,22.30
2023-01-01T14:36:36.362Z,22.10
2023-01-01T14:41:40.569Z,21.80
2023-01-01T14:46:49.288Z,21.60
2023-01-01T14:52:05.700Z,21.40
2023-01-01T14:57:21.848Z,21.30
2023-01-01T15:02:32.404Z,21.10
2023-01-01T15:07:40.680Z,20.90
2023-01-01T15:12:55.386Z,20.90
2023-01-01T15:17:57.378Z,20.90
2023-01-01T15:23:09.788Z,20.80
2023-01-01T15:28:20.646Z,20.70
2023-01-01T15:33:23.410Z,20.50
2023-01-01T15:38:30.789Z,20.30
2023-01-01T15:43:33.267Z,20.20
2023-01-01T15:48:37.597Z,20.00
2023-01-01T15:53:54.581Z,20.10
2023-01-01T15:59:08.411Z,19.90
2023-01-01T16:04:28.711Z,19.80
2023-01-01T16:09:32.904Z,19.70
2023-01-01T16:14:35.804Z,19.60
2023-01-01T16:19:37.662Z,19.50
2023-01-01T16:24:39.515Z,19.50
2023-01-01T16:29:43.579Z,19.40
2023-01-01T16:34:46.156Z,19.30
2023-01-01T16:39:48.083Z,19.00
2023-01-01T16:44:50.371Z,18.90
2023-01-01T16:49:52.195Z,18.70
2023-01-01T16:54:53.994Z,18.60
2023-01-01T16:59:56.576Z,18.40
2023-01-01T17:04:58.449Z,18.20
2023-01-01T17:10:00.436Z,17.90
2023-01-01T17:15:02.375Z,17.60
2023-01-01T17:20:04.598Z,17.30
2023-01-01T17:25:07.127Z,17.10
2023-01-01T17:30:09.507Z,17.00
2023-01-01T17:35:11.327Z,16.80
2023-01-01T17:40:13.241Z,16.50
2023-01-01T17:45:15.153Z,16.30
2023-01-01T17:50:17.174Z,16.10
2023-01-01T17:55:19.069Z,15.80
2023-01-01T18:00:21.037Z,15.60
2023-01-01T18:05:22.928Z,15.50
2023-01-01T18:10:24.845Z,15.40
2023-01-01T18:15:26.760Z,15.30
2023-01-01T18:20:28.643Z,15.20
2023-01-01T18:25:30.665Z,15.10
2023-01-01T18:30:32.998Z,15.20
2023-01-01T18:35:34.886Z,14.80
2023-01-01T18:40:42.171Z,14.70
2023-01-01T18:45:44.052Z,14.60
2023-01-01T18:50:46.048Z,14.60
2023-01-01T18:56:01.531Z,14.50
2023-01-01T19:01:12.604Z,14.30
2023-01-01T19:06:32.777Z,14.20
2023-01-01T19:11:37.759Z,14.10
2023-01-01T19:16:39.771Z,14.00
2023-01-01T19:21:46.461Z,14.00
2023-01-01T19:26:57.131Z,14.00
2023-01-01T19:31:59.201Z,13.90
2023-01-01T19:37:01.341Z,13.90
2023-01-01T19:42:05.116Z,14.00
2023-01-01T19:47:09.137Z,14.10
2023-01-01T19:52:11.129Z,14.10
2023-01-01T19:57:14.092Z,14.10
2023-01-01T20:02:44.979Z,14.00
2023-01-01T20:07:37.772Z,14.00
2023-01-01T20:12:39.662Z,13.90
2023-01-01T20:17:42.289Z,13.80
2023-01-01T20:22:44.178Z,13.90
2023-01-01T20:28:06.369Z,13.80
2023-01-01T20:33:08.195Z,13.80
2023-01-01T20:38:10.051Z,13.70
2023-01-01T20:43:11.888Z,13.60
2023-01-01T20:48:19.575Z,13.60
2023-01-01T20:53:21.825Z,13.50
2023-01-01T20:58:23.692Z,13.30
2023-01-01T21:03:25.521Z,13.20
2023-01-01T21:08:27.336Z,13.00
2023-01-01T21:13:29.171Z,12.80
2023-01-01T21:18:32.621Z,12.80
2023-01-01T21:23:34.612Z,12.80
2023-01-01T21:28:36.530Z,12.80
2023-01-01T21:33:38.641Z,12.80
2023-01-01T21:38:40.512Z,12.90
2023-01-01T21:43:51.941Z,12.80
2023-01-01T21:49:00.147Z,12.80
2023-01-01T21:54:09.871Z,12.70
2023-01-01T21:59:27.544Z,12.50
2023-01-01T22:04:36.771Z,12.50
2023-01-01T22:09:45.260Z,12.60
2023-01-01T22:14:49.615Z,12.50
2023-01-01T22:19:52.824Z,12.60
2023-01-01T22:24:55.637Z,12.60
2023-01-01T22:30:13.378Z,12.60
2023-01-01T22:35:28.858Z,12.50
2023-01-01T22:40:34.392Z,12.40
2023-01-01T22:45:43.962Z,12.40
2023-01-01T22:50:46.368Z,12.40
2023-01-01T22:55:48.546Z,12.20
2023-01-01T23:00:50.789Z,12.10
2023-01-01T23:05:54.378Z,12.00
2023-01-01T23:10:59.777Z,12.00
2023-01-01T23:16:02.539Z,12.00
2023-01-01T23:21:09.630Z,11.90
2023-01-01T23:26:12.570Z,11.80
2023-01-01T23:31:22.761Z,11.80
2023-01-01T23:36:28.512Z,11.70
2023-01-01T23:41:32.383Z,11.70
2023-01-01T23:46:39.805Z,11.50
2023-01-01T23:51:45.756Z,11.60
2023-01-01T23:56:47.811Z,11.60
